Time;durP1;ratioP1;P1;durP2;ratioP2;P2;SDS_P1;SDS_P2;PMS_P1;PMS_P2;Temp;Humidity;BMP_temperature;BMP_pressure;BME280_temperature;BME280_humidity;BME280_pressure;Samples;Min_cycle;Max_cycle;Signal;HPM_P1;HPM_P2
2022/05/23 00:00:07;;;;;;;339.37;181.87;;;;;;;19.84;60.25;99018.66;340513;29;1504;-80
2022/05/23 00:00:18;;;;;;;339.05;185.20;;;;;;;19.82;60.08;99015.28;338506;29;3754;-79
2022/05/23 00:00:30;;;;;;;338.17;184.93;;;;;;;19.83;60.23;99019.63;341245;29;3161;-79
2022/05/23 00:00:40;;;;;;;342.73;188.75;;;;;;;19.79;60.18;99010.25;340580;29;1517;-80
2022/05/23 00:00:51;;;;;;;347.67;193.13;;;;;;;19.79;60.51;99010.25;337443;29;2962;-80
2022/05/23 00:01:03;;;;;;;348.48;194.60;;;;;;;19.80;59.98;99018.09;337039;29;1284;-80
2022/05/23 00:01:13;;;;;;;344.20;191.18;;;;;;;19.81;60.16;99014.44;337552;29;1411;-80
2022/05/23 00:01:23;;;;;;;345.73;193.57;;;;;;;19.82;60.29;99013.47;340896;29;1296;-80
2022/05/23 00:01:34;;;;;;;347.55;194.90;;;;;;;19.80;60.23;99011.94;338726;29;1247;-80
2022/05/23 00:01:44;;;;;;;347.87;197.00;;;;;;;19.79;60.11;99015.56;338749;29;1219;-80
2022/05/23 00:01:55;;;;;;;347.20;194.07;;;;;;;19.78;60.10;99014.72;339626;29;1330;-80
2022/05/23 00:02:06;;;;;;;345.83;192.13;;;;;;;19.78;60.36;99008.56;337666;29;1331;-79
2022/05/23 00:02:16;;;;;;;347.38;193.77;;;;;;;19.78;60.18;99011.22;339675;29;888;-79
2022/05/23 00:02:27;;;;;;;345.63;191.23;;;;;;;19.78;60.22;99016.53;340162;29;1459;-79
2022/05/23 00:02:37;;;;;;;344.90;191.03;;;;;;;19.75;60.16;99008.84;337485;29;1382;-79
2022/05/23 00:02:48;;;;;;;342.88;186.05;;;;;;;19.80;60.16;99017.25;336866;29;1380;-79
2022/05/23 00:02:59;;;;;;;343.52;186.93;;;;;;;19.80;59.92;99011.94;337486;29;1459;-79
2022/05/23 00:03:09;;;;;;;341.00;185.30;;;;;;;19.79;60.38;99016.41;338905;29;1259;-79
2022/05/23 00:03:21;;;;;;;339.98;184.50;;;;;;;19.79;60.13;99012.91;337055;29;1393;-79
2022/05/23 00:03:32;;;;;;;342.05;190.77;;;;;;;19.80;60.15;99022.56;338341;29;1299;-79
2022/05/23 00:03:42;;;;;;;344.80;196.88;;;;;;;19.80;59.99;99018.09;340830;29;1277;-79
2022/05/23 00:03:53;;;;;;;344.47;197.00;;;;;;;19.82;60.09;99015.28;339132;29;1259;-79
2022/05/23 00:04:04;;;;;;;344.30;193.88;;;;;;;19.82;60.28;99015.28;336910;29;1292;-79
2022/05/23 00:04:14;;;;;;;344.60;192.65;;;;;;;19.82;60.04;99017.94;337157;29;1236;-79
2022/05/23 00:04:25;;;;;;;346.23;193.40;;;;;;;19.80;60.42;99019.91;337160;29;1375;-79
2022/05/23 00:04:36;;;;;;;345.13;189.88;;;;;;;19.81;60.29;99013.63;340748;29;1528;-79
2022/05/23 00:04:46;;;;;;;348.43;192.20;;;;;;;19.79;60.26;99015.56;340784;29;1211;-79
2022/05/23 00:04:57;;;;;;;347.10;191.00;;;;;;;19.80;60.37;99019.91;338451;29;862;-79
2022/05/23 00:05:08;;;;;;;346.35;190.93;;;;;;;19.76;59.84;99015.84;338375;29;1043;-79
2022/05/23 00:05:18;;;;;;;347.55;187.35;;;;;;;19.78;60.45;99019.19;336587;29;1173;-79
2022/05/23 00:05:29;;;;;;;349.77;190.80;;;;;;;19.77;60.49;99023.66;336966;29;1320;-79
2022/05/23 00:05:39;;;;;;;347.63;191.73;;;;;;;19.78;60.67;99024.50;339224;29;1526;-78
2022/05/23 00:05:50;;;;;;;345.40;192.60;;;;;;;19.76;60.62;99016.66;338353;29;1453;-78
2022/05/23 00:06:01;;;;;;;345.67;194.20;;;;;;;19.76;60.50;99013.19;339461;29;1082;-78
2022/05/23 00:06:13;;;;;;;346.67;192.98;;;;;;;19.79;60.65;99018.22;338631;29;1307;-78
2022/05/23 00:06:23;;;;;;;347.52;193.68;;;;;;;19.78;60.51;99019.19;336219;29;1529;-78
2022/05/23 00:06:34;;;;;;;346.60;191.83;;;;;;;19.75;60.41;99014.16;338574;29;1469;-78
2022/05/23 00:06:44;;;;;;;347.23;191.13;;;;;;;19.79;60.29;99021.72;338329;29;1277;-78
2022/05/23 00:06:55;;;;;;;346.13;188.70;;;;;;;19.78;60.28;99020.03;338088;29;1504;-78
2022/05/23 00:07:27;;;;;;;346.80;190.00;;;;;;;19.78;60.25;99013.88;337321;29;1523;-78
2022/05/23 00:07:40;;;;;;;342.70;189.05;;;;;;;19.77;60.41;99020.16;338520;29;5032;-78
2022/05/23 00:07:50;;;;;;;342.08;189.40;;;;;;;19.77;60.19;99017.50;339783;29;910;-78
2022/05/23 00:08:02;;;;;;;342.02;188.75;;;;;;;19.73;60.33;99013.44;339678;29;788;-78
2022/05/23 00:08:13;;;;;;;345.08;189.63;;;;;;;19.72;60.55;99015.25;338708;29;1315;-79
2022/05/23 00:08:25;;;;;;;347.83;191.43;;;;;;;19.75;60.54;99017.66;337480;29;1139;-79
2022/05/23 00:08:35;;;;;;;345.48;190.60;;;;;;;19.74;60.36;99015.13;336266;29;1514;-79
2022/05/23 00:08:46;;;;;;;342.42;190.48;;;;;;;19.76;60.21;99015.84;340958;29;1429;-79
2022/05/23 00:08:56;;;;;;;340.15;187.60;;;;;;;19.76;60.21;99015.84;340794;29;889;-79
2022/05/23 00:09:07;;;;;;;343.50;190.33;;;;;;;19.73;60.18;99014.28;339109;29;1385;-79
2022/05/23 00:09:17;;;;;;;344.67;189.33;;;;;;;19.74;60.46;99015.97;338428;29;1303;-79
2022/05/23 00:09:29;;;;;;;342.17;191.20;;;;;;;19.73;60.44;99021.41;339971;28;3954;-79
2022/05/23 00:09:40;;;;;;;340.83;190.10;;;;;;;19.73;60.69;99010.78;339420;29;1413;-79
2022/05/23 00:09:50;;;;;;;345.10;194.18;;;;;;;19.74;60.82;99012.47;336931;29;1551;-79
2022/05/23 00:10:01;;;;;;;344.97;190.93;;;;;;;19.74;60.82;99015.13;339668;29;1209;-79
2022/05/23 00:10:12;;;;;;;344.20;191.60;;;;;;;19.74;60.72;99015.97;338058;29;1354;-79
2022/05/23 00:10:23;;;;;;;341.50;188.50;;;;;;;19.70;60.53;99009.25;338870;29;1521;-79
2022/05/23 00:10:33;;;;;;;341.50;190.48;;;;;;;19.71;60.66;99018.06;340665;29;1492;-79
2022/05/23 00:10:44;;;;;;;340.57;188.57;;;;;;;19.68;60.73;99011.19;339824;29;1431;-79
2022/05/23 00:10:54;;;;;;;342.80;189.27;;;;;;;19.66;60.98;99004.34;337367;29;1328;-79
2022/05/23 00:11:05;;;;;;;342.90;188.50;;;;;;;19.66;60.83;99012.31;340497;28;1269;-79
2022/05/23 00:11:16;;;;;;;346.38;189.65;;;;;;;19.68;60.70;99011.19;337155;29;1223;-79
2022/05/23 00:11:26;;;;;;;346.33;191.23;;;;;;;19.70;60.68;99011.06;338423;29;823;-79
2022/05/23 00:11:37;;;;;;;346.67;191.93;;;;;;;19.69;60.63;99009.38;337487;29;1452;-79
2022/05/23 00:11:47;;;;;;;343.47;191.97;;;;;;;19.69;60.68;99014.69;337117;29;1340;-79
2022/05/23 00:11:58;;;;;;;344.27;194.05;;;;;;;19.67;60.52;99006.84;338427;29;1282;-79
2022/05/23 00:12:09;;;;;;;344.73;193.55;;;;;;;19.69;60.67;99012.88;339044;29;1535;-79
2022/05/23 00:12:20;;;;;;;347.40;192.93;;;;;;;19.71;60.77;99012.75;338239;29;1271;-79
2022/05/23 00:12:30;;;;;;;349.95;190.07;;;;;;;19.70;60.64;99011.06;335799;29;803;-79
2022/05/23 00:12:41;;;;;;;348.77;188.03;;;;;;;19.66;60.40;99013.16;336794;29;1931;-79
2022/05/23 00:12:51;;;;;;;347.17;188.50;;;;;;;19.66;60.86;99010.50;339353;29;1300;-78
2022/05/23 00:13:02;;;;;;;344.98;190.02;;;;;;;19.66;60.69;99017.59;339610;29;1232;-80
2022/05/23 00:13:12;;;;;;;345.37;189.33;;;;;;;19.67;60.28;99016.63;339225;29;1435;-79
2022/05/23 00:13:23;;;;;;;347.17;190.63;;;;;;;19.63;60.47;99009.91;336892;29;1446;-80
2022/05/23 00:13:34;;;;;;;351.17;192.87;;;;;;;19.63;60.47;99015.22;337630;29;1507;-79
2022/05/23 00:13:45;;;;;;;350.13;187.73;;;;;;;19.57;60.80;99001.50;337448;29;1353;-79
2022/05/23 00:13:55;;;;;;;349.15;186.65;;;;;;;19.63;60.53;99009.91;336782;29;1319;-80
2022/05/23 00:14:06;;;;;;;347.80;186.73;;;;;;;19.62;60.67;99008.22;339618;29;1484;-80
2022/05/23 00:14:16;;;;;;;352.27;194.23;;;;;;;19.64;60.53;99011.59;338139;29;1178;-80
2022/05/23 00:14:28;;;;;;;350.20;191.87;;;;;;;19.62;60.72;99016.19;337536;29;1068;-79
2022/05/23 00:14:41;;;;;;;350.85;191.73;;;;;;;19.60;60.77;99006.56;337722;29;835;-79
2022/05/23 00:14:51;;;;;;;348.45;188.00;;;;;;;19.62;60.71;99013.53;338138;29;5120;-79
2022/05/23 00:15:06;;;;;;;347.97;187.67;;;;;;;19.63;61.05;99010.75;337017;29;1243;-79
2022/05/23 00:15:16;;;;;;;344.38;186.93;;;;;;;19.65;61.17;99010.63;336790;29;5253;-79
2022/05/23 00:15:27;;;;;;;342.07;188.10;;;;;;;19.65;61.06;99013.28;335721;29;1426;-79
2022/05/23 00:15:38;;;;;;;342.90;189.35;;;;;;;19.65;60.87;99018.59;336880;29;1232;-79
2022/05/23 00:15:48;;;;;;;342.27;187.88;;;;;;;19.62;61.02;99011.72;335704;29;1240;-79
2022/05/23 00:15:59;;;;;;;345.27;192.80;;;;;;;19.65;60.70;99019.44;339714;29;1588;-79
2022/05/23 00:16:09;;;;;;;346.23;190.45;;;;;;;19.65;60.58;99008.81;339029;29;1266;-79
2022/05/23 00:16:25;;;;;;;347.90;193.83;;;;;;;19.66;60.69;99015.78;339022;29;1552;-80
2022/05/23 00:16:42;;;;;;;342.45;188.40;;;;;;;19.68;60.48;99016.50;339006;29;5219;-80
2022/05/23 00:16:53;;;;;;;340.27;186.10;;;;;;;19.67;60.46;99013.97;338778;29;4815;-80
2022/05/23 00:17:04;;;;;;;338.73;181.73;;;;;;;19.68;60.44;99013.00;339990;29;1179;-80
2022/05/23 00:17:14;;;;;;;338.65;181.60;;;;;;;19.67;60.74;99013.97;337260;29;1634;-80
2022/05/23 00:17:24;;;;;;;342.13;182.50;;;;;;;19.67;60.75;99011.31;342360;28;1452;-80
2022/05/23 00:17:35;;;;;;;345.75;189.02;;;;;;;19.65;60.55;99005.31;339969;29;1305;-80
2022/05/23 00:17:46;;;;;;;342.85;187.27;;;;;;;19.66;60.80;99015.78;335975;29;1405;-79
2022/05/23 00:17:56;;;;;;;343.27;189.27;;;;;;;19.67;60.69;99016.63;339343;29;1125;-79
2022/05/23 00:18:07;;;;;;;341.23;189.25;;;;;;;19.65;60.81;99014.13;339661;29;1333;-79
2022/05/23 00:18:17;;;;;;;346.37;195.73;;;;;;;19.68;61.19;99013.00;338550;29;961;-80
2022/05/23 00:18:28;;;;;;;344.77;194.15;;;;;;;19.67;60.96;99016.63;339819;29;1505;-80
2022/05/23 00:18:38;;;;;;;344.37;191.07;;;;;;;19.65;60.79;99008.81;336718;29;4054;-80
2022/05/23 00:18:49;;;;;;;343.55;186.98;;;;;;;19.65;61.16;99013.28;338313;29;1489;-78
2022/05/23 00:18:59;;;;;;;344.57;186.77;;;;;;;19.65;61.30;99018.59;338638;29;1220;-78
2022/05/23 00:19:10;;;;;;;347.70;190.45;;;;;;;19.60;61.24;99001.25;340059;29;1818;-78
2022/05/23 00:19:20;;;;;;;348.90;191.53;;;;;;;19.63;60.75;99005.44;338205;29;855;-79
2022/05/23 00:19:30;;;;;;;343.25;188.25;;;;;;;19.61;61.04;99015.34;339891;29;889;-80
2022/05/23 00:19:41;;;;;;;343.50;188.73;;;;;;;19.63;60.88;99012.56;338678;29;1500;-79
2022/05/23 00:19:51;;;;;;;341.58;187.80;;;;;;;19.60;60.67;99009.22;338279;29;1371;-79
2022/05/23 00:20:03;;;;;;;344.57;188.87;;;;;;;19.59;60.72;99010.19;336889;29;928;-79
2022/05/23 00:20:15;;;;;;;346.55;187.90;;;;;;;19.62;60.69;99009.06;336969;29;1359;-80
2022/05/23 00:20:26;;;;;;;347.40;187.32;;;;;;;19.63;60.68;99009.91;336933;29;1476;-80
2022/05/23 00:20:37;;;;;;;346.65;188.20;;;;;;;19.62;60.87;99018.84;338183;29;1734;-79
2022/05/23 00:20:47;;;;;;;348.00;190.43;;;;;;;19.62;60.49;99009.06;338133;29;1338;-79
2022/05/23 00:20:57;;;;;;;347.27;188.33;;;;;;;19.62;60.80;99013.53;338043;29;1477;-79
2022/05/23 00:21:08;;;;;;;348.57;190.90;;;;;;;19.63;60.55;99012.56;339652;29;1667;-79
2022/05/23 00:21:18;;;;;;;346.27;191.07;;;;;;;19.57;60.78;99001.50;337523;29;1659;-78
2022/05/23 00:21:29;;;;;;;347.80;193.40;;;;;;;19.62;60.62;99013.53;339848;29;1232;-78
2022/05/23 00:21:40;;;;;;;346.88;189.85;;;;;;;19.62;60.70;99021.50;338382;29;1259;-78
2022/05/23 00:21:51;;;;;;;346.48;186.32;;;;;;;19.59;60.32;99009.34;339378;29;1314;-78
2022/05/23 00:22:01;;;;;;;347.97;188.87;;;;;;;19.62;60.55;99014.38;336971;29;1195;-78
2022/05/23 00:22:12;;;;;;;350.23;191.00;;;;;;;19.58;60.52;99005.84;335735;29;1497;-78
2022/05/23 00:22:22;;;;;;;349.90;191.52;;;;;;;19.56;60.84;98999.84;339460;29;1306;-78
2022/05/23 00:22:32;;;;;;;348.87;188.10;;;;;;;19.59;60.72;99018.16;341089;29;1286;-79
2022/05/23 00:22:43;;;;;;;347.02;183.60;;;;;;;19.60;60.67;99011.03;339407;29;1493;-79
2022/05/23 00:22:53;;;;;;;345.77;184.43;;;;;;;19.62;60.64;99005.59;339016;29;1477;-79
2022/05/23 00:23:04;;;;;;;344.75;186.50;;;;;;;19.58;60.72;99005.84;337697;29;1489;-79
2022/05/23 00:23:14;;;;;;;344.90;187.60;;;;;;;19.63;60.93;99015.22;337474;29;1605;-79
2022/05/23 00:23:25;;;;;;;344.33;188.52;;;;;;;19.60;60.99;99011.88;337164;29;941;-79
2022/05/23 00:23:35;;;;;;;346.43;189.93;;;;;;;19.62;60.92;99018.84;338295;29;929;-79
2022/05/23 00:23:45;;;;;;;346.67;192.65;;;;;;;19.62;60.88;99010.88;336849;29;1322;-79
2022/05/23 00:23:56;;;;;;;349.57;192.63;;;;;;;19.58;60.79;99003.19;338423;29;1470;-79
2022/05/23 00:24:10;;;;;;;351.20;194.70;;;;;;;19.60;61.13;99003.91;338814;29;1461;-79
2022/05/23 00:24:20;;;;;;;351.45;195.20;;;;;;;19.59;60.84;99002.22;339527;29;1378;-79
2022/05/23 00:24:31;;;;;;;348.00;192.43;;;;;;;19.57;60.45;99005.97;338081;29;893;-79
2022/05/23 00:24:45;;;;;;;348.10;191.13;;;;;;;19.55;60.62;99013.25;339042;29;1493;-79
2022/05/23 00:24:55;;;;;;;346.63;187.98;;;;;;;19.52;60.43;99014.34;339139;29;4895;-79
2022/05/23 00:25:06;;;;;;;344.52;183.90;;;;;;;19.54;60.65;99009.75;338330;29;1541;-79
2022/05/23 00:25:17;;;;;;;344.17;185.05;;;;;;;19.54;60.92;99016.88;337047;29;831;-79
2022/05/23 00:25:27;;;;;;;343.80;185.23;;;;;;;19.49;60.58;99009.31;337896;29;1280;-79
2022/05/23 00:25:38;;;;;;;343.77;185.93;;;;;;;19.52;60.69;99013.50;341155;29;844;-79
2022/05/23 00:25:49;;;;;;;341.52;185.30;;;;;;;19.51;60.76;99010.00;339354;29;1254;-79
2022/05/23 00:25:59;;;;;;;341.63;186.70;;;;;;;19.51;60.62;99012.66;337142;29;1551;-79
2022/05/23 00:26:11;;;;;;;344.20;190.10;;;;;;;19.49;60.69;99009.31;336733;29;1386;-79
2022/05/23 00:26:23;;;;;;;346.88;191.13;;;;;;;19.49;60.76;99009.31;334928;29;1470;-79
2022/05/23 00:26:33;;;;;;;345.63;192.30;;;;;;;19.44;60.88;99010.66;337216;29;1413;-79
2022/05/23 00:26:46;;;;;;;347.87;190.50;;;;;;;19.45;60.63;99012.34;337607;29;1532;-79
2022/05/23 00:26:57;;;;;;;343.38;186.18;;;;;;;19.43;61.12;99015.13;340990;29;1628;-79
2022/05/23 00:27:08;;;;;;;339.23;185.90;;;;;;;19.42;61.21;99008.16;339633;29;1483;-79
2022/05/23 00:27:20;;;;;;;340.50;185.38;;;;;;;19.41;61.12;99010.94;336850;29;1474;-80
2022/05/23 00:27:31;;;;;;;346.10;187.38;;;;;;;19.43;61.28;99009.84;340061;29;1306;-80
2022/05/23 00:27:46;;;;;;;347.50;188.40;;;;;;;19.42;61.30;99010.81;339051;29;1517;-80
2022/05/23 00:27:57;;;;;;;347.23;189.65;;;;;;;19.37;60.96;99005.06;337439;29;5347;-80
2022/05/23 00:28:07;;;;;;;346.05;188.27;;;;;;;19.43;61.25;99012.50;339574;29;2035;-80
2022/05/23 00:28:17;;;;;;;349.50;191.63;;;;;;;19.39;61.00;99003.09;340885;29;1314;-80
2022/05/23 00:28:28;;;;;;;352.30;191.50;;;;;;;19.42;61.27;99005.50;338974;29;2866;-80
2022/05/23 00:28:38;;;;;;;354.13;193.50;;;;;;;19.40;61.56;99010.09;335846;29;1186;-80
2022/05/23 00:28:49;;;;;;;351.58;190.07;;;;;;;19.40;61.23;99009.25;337016;29;1780;-80
2022/05/23 00:28:59;;;;;;;349.00;189.53;;;;;;;19.41;61.13;99006.47;337746;29;1533;-80
2022/05/23 00:29:10;;;;;;;348.60;190.02;;;;;;;19.41;61.37;99005.63;338321;29;1505;-80
2022/05/23 00:29:20;;;;;;;350.03;195.07;;;;;;;19.43;61.27;99006.34;337252;29;1278;-80
2022/05/23 00:29:31;;;;;;;351.55;196.88;;;;;;;19.40;61.46;99012.75;339076;29;1364;-80
2022/05/23 00:29:41;;;;;;;347.23;195.13;;;;;;;19.38;61.48;99006.72;338102;29;1367;-80
2022/05/23 00:29:52;;;;;;;345.33;190.13;;;;;;;19.40;61.30;99006.59;338270;29;1393;-80
2022/05/23 00:30:02;;;;;;;345.63;190.10;;;;;;;19.41;61.18;99011.78;339406;29;1512;-80
2022/05/23 00:30:16;;;;;;;347.58;189.65;;;;;;;19.41;61.08;99005.63;338269;29;1215;-78
2022/05/23 00:30:26;;;;;;;346.73;188.52;;;;;;;19.42;61.02;99008.16;337998;29;4788;-78
2022/05/23 00:30:37;;;;;;;344.35;186.75;;;;;;;19.42;60.91;99007.31;340684;29;1375;-78
2022/05/23 00:30:47;;;;;;;342.88;185.70;;;;;;;19.39;60.89;99002.25;335445;29;1358;-78
2022/05/23 00:30:57;;;;;;;344.40;189.53;;;;;;;19.40;60.83;99010.09;337512;29;1623;-78
2022/05/23 00:31:08;;;;;;;344.97;188.87;;;;;;;19.40;61.10;99003.94;338014;29;838;-78
2022/05/23 00:31:19;;;;;;;343.90;189.77;;;;;;;19.39;61.49;99008.41;335146;29;1267;-78
2022/05/23 00:31:29;;;;;;;344.65;190.15;;;;;;;19.38;60.90;99001.44;336241;29;1912;-78
2022/05/23 00:35:17;;;;;;;344.27;190.40;;;;;;;19.42;60.91;99013.47;336836;29;1454;-78
2022/05/23 00:35:20;;;;;;;338.25;184.82;;;;;;;19.41;61.58;98998.50;339362;29;4990;-79
2022/05/23 00:35:30;;;;;;;337.02;184.75;;;;;;;19.40;61.29;98999.47;340499;29;964;-79
2022/05/23 00:35:42;;;;;;;337.70;184.23;;;;;;;19.41;61.42;99010.94;340548;29;1605;-79
2022/05/23 00:35:54;;;;;;;341.23;189.00;;;;;;;19.40;61.01;99007.44;338036;29;751;-79
2022/05/23 00:36:04;;;;;;;341.88;189.15;;;;;;;19.40;61.25;99004.78;335163;29;988;-79
2022/05/23 00:36:15;;;;;;;343.58;190.65;;;;;;;19.42;61.48;99012.63;335407;29;1387;-79
2022/05/23 00:36:28;;;;;;;344.45;193.45;;;;;;;19.42;61.11;99012.63;338094;29;1489;-79
2022/05/23 00:36:39;;;;;;;345.73;194.20;;;;;;;19.42;61.24;98996.69;339718;29;5128;-79
2022/05/23 00:36:49;;;;;;;344.50;193.07;;;;;;;19.41;61.32;99006.47;338073;29;1366;-79
2022/05/23 00:36:59;;;;;;;345.73;191.80;;;;;;;19.41;61.22;99006.47;336054;29;3003;-79
2022/05/23 00:37:10;;;;;;;347.43;193.87;;;;;;;19.41;60.93;99009.13;334989;29;4548;-79
2022/05/23 00:37:21;;;;;;;348.13;194.25;;;;;;;19.37;61.19;98999.75;338615;29;2722;-79
2022/05/23 00:37:31;;;;;;;351.38;196.85;;;;;;;19.38;61.18;99009.38;338763;29;1495;-79
2022/05/23 00:37:42;;;;;;;351.15;193.60;;;;;;;19.37;60.95;99005.06;336677;29;3256;-79
2022/05/23 00:37:55;;;;;;;350.93;191.77;;;;;;;19.36;60.82;99011.34;336816;29;1319;-79
2022/05/23 00:38:05;;;;;;;345.40;186.90;;;;;;;19.37;61.00;99006.88;335629;29;973;-79
2022/05/23 00:38:16;;;;;;;344.08;183.27;;;;;;;19.36;60.86;99008.69;336946;29;1560;-79
2022/05/23 00:38:26;;;;;;;344.00;183.73;;;;;;;19.35;60.91;99007.00;338066;29;1343;-79
2022/05/23 00:38:37;;;;;;;348.30;186.05;;;;;;;19.36;60.84;99007.84;338122;29;1471;-79
2022/05/23 00:38:47;;;;;;;348.93;187.70;;;;;;;19.32;60.90;99001.13;339695;28;1679;-79
2022/05/23 00:38:58;;;;;;;349.95;188.57;;;;;;;19.30;60.70;98995.09;336992;29;1269;-79
2022/05/23 00:39:08;;;;;;;349.13;188.47;;;;;;;19.31;60.89;98997.63;339852;29;810;-79
2022/05/23 00:39:19;;;;;;;347.63;189.45;;;;;;;19.35;60.83;99003.50;340994;29;1282;-79
2022/05/23 00:39:29;;;;;;;348.83;191.20;;;;;;;19.35;60.71;99007.00;342033;28;1206;-80
2022/05/23 00:39:40;;;;;;;349.83;192.48;;;;;;;19.36;61.21;99003.38;338371;29;1390;-80
2022/05/23 00:39:50;;;;;;;352.23;193.47;;;;;;;19.36;60.95;99008.69;338506;29;1401;-80
2022/05/23 00:40:01;;;;;;;351.77;190.80;;;;;;;19.33;60.85;98998.31;339533;29;1437;-79
2022/05/23 00:40:28;;;;;;;351.33;192.93;;;;;;;19.33;60.85;99005.44;338343;29;1461;-79
2022/05/23 00:43:32;;;;;;;342.67;187.85;;;;;;;19.37;60.97;98999.75;339996;29;5446;-78
2022/05/23 00:43:42;;;;;;;336.42;179.38;;;;;;;19.36;60.90;99007.84;335848;29;5070;-79
2022/05/23 00:44:01;;;;;;;338.83;183.00;;;;;;;19.34;61.02;99001.81;335540;29;1113;-79
2022/05/23 00:44:11;;;;;;;339.40;186.15;;;;;;;19.34;61.09;99005.31;335893;29;1434;-81
2022/05/23 00:44:24;;;;;;;338.48;184.77;;;;;;;19.34;61.02;99002.66;335641;29;1378;-80
2022/05/23 00:44:35;;;;;;;340.95;184.73;;;;;;;19.35;60.70;99001.69;334390;29;4577;-80
2022/05/23 00:44:45;;;;;;;343.73;186.83;;;;;;;19.33;60.88;99003.63;335774;29;887;-80
2022/05/23 00:44:56;;;;;;;347.23;189.80;;;;;;;19.32;60.86;98999.31;334170;29;1596;-80
2022/05/23 00:45:06;;;;;;;350.23;192.03;;;;;;;19.28;60.92;98996.06;338433;29;1496;-79
2022/05/23 00:45:18;;;;;;;349.77;191.68;;;;;;;19.30;60.40;99003.91;337824;29;1462;-79
2022/05/23 00:45:28;;;;;;;347.77;188.95;;;;;;;19.26;60.75;98999.84;338637;29;1331;-80
2022/05/23 00:45:39;;;;;;;343.80;183.95;;;;;;;19.25;61.03;99000.81;339057;29;1361;-80
2022/05/23 00:45:55;;;;;;;345.08;181.55;;;;;;;19.26;60.79;99002.47;340408;29;1354;-80
2022/05/23 00:46:05;;;;;;;346.90;186.27;;;;;;;19.28;60.86;99001.38;338067;29;5640;-79
2022/05/23 00:46:16;;;;;;;348.10;191.80;;;;;;;19.30;60.89;99008.38;337108;29;3339;-79
2022/05/23 00:46:26;;;;;;;349.90;196.57;;;;;;;19.29;60.96;99002.22;335926;29;5270;-80
2022/05/23 00:46:48;;;;;;;351.57;197.27;;;;;;;19.29;61.19;99007.53;336990;29;1024;-80
2022/05/23 00:47:01;;;;;;;350.15;191.63;;;;;;;19.31;60.88;99005.59;339582;29;5014;-79
2022/05/23 00:47:19;;;;;;;342.98;187.05;;;;;;;19.32;61.12;99007.25;339698;29;4879;-78
2022/05/23 00:47:30;;;;;;;336.20;179.30;;;;;;;19.32;60.86;99004.59;336975;29;1249;-78
2022/05/23 00:47:40;;;;;;;339.52;182.73;;;;;;;19.31;61.01;99005.59;338678;29;1397;-78
2022/05/23 00:47:53;;;;;;;343.60;186.40;;;;;;;19.31;61.13;99005.59;341170;29;1462;-78
2022/05/23 00:48:03;;;;;;;342.90;184.77;;;;;;;19.33;61.24;99008.09;337857;29;4786;-79
2022/05/23 00:48:14;;;;;;;343.23;185.63;;;;;;;19.32;60.97;99001.97;338672;29;1276;-79
2022/05/23 00:48:26;;;;;;;344.58;187.90;;;;;;;19.26;60.94;98991.88;338415;29;1409;-79
2022/05/23 00:48:37;;;;;;;345.40;192.48;;;;;;;19.31;60.96;99002.94;339324;29;1504;-80
2022/05/23 00:48:48;;;;;;;341.48;189.73;;;;;;;19.30;61.01;99003.91;339142;29;992;-80
2022/05/23 00:48:59;;;;;;;343.17;186.45;;;;;;;19.32;61.05;99007.25;338728;29;1251;-80
2022/05/23 00:49:09;;;;;;;346.77;186.82;;;;;;;19.32;61.12;99012.56;338656;29;803;-80
2022/05/23 00:49:31;;;;;;;349.10;188.68;;;;;;;19.33;60.71;99010.75;338016;29;1532;-80
2022/05/23 00:49:41;;;;;;;344.23;190.80;;;;;;;19.32;61.01;99006.41;339222;29;5296;-78
2022/05/23 00:49:52;;;;;;;341.63;188.30;;;;;;;19.31;61.04;99008.22;339492;29;1222;-78
2022/05/23 00:50:02;;;;;;;340.27;185.47;;;;;;;19.32;60.85;99001.97;338159;29;1478;-78
2022/05/23 00:50:14;;;;;;;341.88;187.75;;;;;;;19.29;61.20;99002.22;336120;29;1549;-79
2022/05/23 00:50:25;;;;;;;344.17;189.18;;;;;;;19.32;61.00;99004.59;338024;29;1468;-79
2022/05/23 00:50:35;;;;;;;344.53;187.50;;;;;;;19.32;61.08;99007.25;339355;29;1457;-79
2022/05/23 00:50:49;;;;;;;344.38;185.55;;;;;;;19.33;60.88;99003.63;338662;29;1488;-79
2022/05/23 00:51:07;;;;;;;341.70;184.30;;;;;;;19.33;60.94;99011.59;338444;29;5129;-79
2022/05/23 00:51:17;;;;;;;345.05;191.02;;;;;;;19.32;60.92;99007.25;335894;29;5138;-79
2022/05/23 00:51:28;;;;;;;346.00;191.45;;;;;;;19.30;60.76;99006.56;338186;29;1911;-79
2022/05/23 00:51:38;;;;;;;344.50;188.52;;;;;;;19.29;60.77;99002.22;339568;29;1232;-79
2022/05/23 00:51:49;;;;;;;348.67;190.70;;;;;;;19.31;60.88;99005.59;338197;29;1382;-79
2022/05/23 00:52:02;;;;;;;349.20;189.73;;;;;;;19.32;60.74;99015.22;339139;29;1540;-79
2022/05/23 00:52:20;;;;;;;348.02;185.85;;;;;;;19.31;60.72;99010.88;339876;29;1352;-79
2022/05/23 00:52:45;;;;;;;346.67;189.13;;;;;;;19.31;60.57;99010.03;338253;29;1302;-79
2022/05/23 00:52:55;;;;;;;344.10;185.80;;;;;;;19.29;60.88;99007.53;339867;29;1291;-79
2022/05/23 00:53:06;;;;;;;345.50;185.80;;;;;;;19.27;60.86;99010.31;341371;29;1531;-79
2022/05/23 00:53:18;;;;;;;350.50;188.63;;;;;;;19.24;60.67;99004.44;337623;29;1190;-79
2022/05/23 00:53:40;;;;;;;351.50;188.45;;;;;;;19.27;60.87;99014.78;337599;29;1865;-79
2022/05/23 00:53:53;;;;;;;349.38;183.77;;;;;;;19.27;61.00;99009.47;340781;29;1302;-79
2022/05/23 00:54:04;;;;;;;349.95;188.18;;;;;;;19.25;60.98;99006.94;338915;29;4768;-79
2022/05/23 00:54:14;;;;;;;349.92;192.45;;;;;;;19.23;61.14;99008.06;338722;29;1553;-79
2022/05/23 00:54:25;;;;;;;353.30;195.55;;;;;;;19.18;61.10;99003.13;337005;29;2141;-79
2022/05/23 00:54:46;;;;;;;356.47;198.23;;;;;;;19.14;61.64;99009.69;335693;29;1223;-79
2022/05/23 00:54:57;;;;;;;349.55;192.85;;;;;;;19.14;61.52;99003.53;338722;29;1401;-79
2022/05/23 00:55:15;;;;;;;345.23;186.80;;;;;;;19.15;61.40;99005.22;337072;29;1380;-79
2022/05/23 00:55:30;;;;;;;346.10;186.20;;;;;;;19.16;61.16;99014.84;337423;29;4998;-79
2022/05/23 00:55:47;;;;;;;348.30;192.40;;;;;;;19.16;60.86;99006.91;339326;29;5191;-80
2022/05/23 00:55:58;;;;;;;348.48;194.80;;;;;;;19.17;61.25;99008.56;338246;29;5688;-79
2022/05/23 00:56:09;;;;;;;344.02;191.00;;;;;;;19.15;61.22;98999.91;338303;29;1394;-79
2022/05/23 00:56:21;;;;;;;339.13;187.40;;;;;;;19.19;61.26;99011.94;336588;29;1507;-79
2022/05/23 00:56:37;;;;;;;339.80;188.07;;;;;;;19.18;61.59;99004.94;338496;29;1631;-78
2022/05/23 00:56:49;;;;;;;345.17;190.93;;;;;;;19.14;61.41;99003.53;335537;29;4877;-78
2022/05/23 00:56:59;;;;;;;347.38;190.20;;;;;;;19.16;61.18;99007.75;339478;29;1402;-78
2022/05/23 00:57:13;;;;;;;346.75;188.98;;;;;;;19.12;61.33;99011.63;339551;29;930;-78
2022/05/23 00:57:27;;;;;;;346.25;186.60;;;;;;;19.15;61.56;99007.88;338187;29;5315;-78
2022/05/23 00:57:41;;;;;;;349.33;185.27;;;;;;;19.13;61.43;99008.00;338172;29;1278;-78
2022/05/23 00:58:01;;;;;;;351.02;188.63;;;;;;;19.07;61.94;99005.03;340563;29;1296;-78
2022/05/23 00:58:15;;;;;;;345.70;189.45;;;;;;;19.07;61.40;99002.38;339786;29;1095;-78
2022/05/23 00:58:30;;;;;;;344.67;190.95;;;;;;;19.10;61.83;99012.72;340432;29;5283;-78
2022/05/23 00:58:45;;;;;;;345.58;192.30;;;;;;;19.11;62.09;99014.41;340847;29;4800;-78
2022/05/23 00:58:58;;;;;;;344.58;188.30;;;;;;;19.12;61.49;99010.78;338090;29;5634;-79
2022/05/23 00:59:09;;;;;;;343.20;185.30;;;;;;;19.11;61.76;99004.63;339681;29;1363;-79
2022/05/23 00:59:26;;;;;;;347.40;186.85;;;;;;;19.12;61.33;99011.63;338281;29;1218;-79
2022/05/23 00:59:36;;;;;;;351.45;191.73;;;;;;;19.13;61.40;99015.13;338076;29;1394;-79